CheckWX is a tool to help pilots better visualize weather data.  It is not intended as a substitute for an official pre-flight weather briefing.

08:51:28 UTC

KJYR METAR
York Municipal Airport
York, Nebraska, USA
Current

16 mins ago

KJYR 220835Z AUTO 11012KT 10SM SCT075 BKN100 M05/M08 A3020 RMK AO2
Observed
Feb-22 @ 08:35 UTC
Wind
  • 110° at 12 KTS
Visibility
10 SM
Flight Rules
VFR
Cloud Levels
  • Scattered at 7,500' AGL
  • Broken at 10,000' AGL
Temperature
-5°C / 23°F
Dewpoint
-8°C / 18°F
Humidity
80%
Altimeter
30.2" Hg
Pressure
1022.72 hPa
Previous

36 mins ago

KJYR 220815Z AUTO 11012KT 10SM BKN075 OVC100 M04/M08 A3020 RMK AO2
Observed
Feb-22 @ 08:15 UTC
Wind
  • 110° at 12 KTS
Visibility
10 SM
Flight Rules
VFR
Cloud Levels
  • Broken at 7,500' AGL
  • Overcast at 10,000' AGL
Temperature
-4°C / 25°F
Dewpoint
-8°C / 18°F
Humidity
74%
Altimeter
30.2" Hg
Pressure
1022.72 hPa
Previous

56 mins ago

KJYR 220755Z AUTO 11015KT 10SM BKN075 OVC100 M04/M07 A3020 RMK AO2
Observed
Feb-22 @ 07:55 UTC
Wind
  • 110° at 15 KTS
Visibility
10 SM
Flight Rules
VFR
Cloud Levels
  • Broken at 7,500' AGL
  • Overcast at 10,000' AGL
Temperature
-4°C / 25°F
Dewpoint
-7°C / 19°F
Humidity
80%
Altimeter
30.2" Hg
Pressure
1022.72 hPa